Time;durP1;ratioP1;P1;durP2;ratioP2;P2;SDS_P1;SDS_P2;PMS_P1;PMS_P2;Temp;Humidity;BMP_temperature;BMP_pressure;BME280_temperature;BME280_humidity;BME280_pressure;Samples;Min_cycle;Max_cycle;Signal;HPM_P1;HPM_P2
2024/02/28 00:01:26;;;;;;;11.20;6.22;;;;;;;-145.63;100.00;61273.97;5011766;28;20391;-68
2024/02/28 00:03:52;;;;;;;11.77;6.68;;;;;;;-145.63;100.00;61273.97;5005855;28;20360;-67
2024/02/28 00:06:17;;;;;;;9.85;6.47;;;;;;;-145.63;100.00;61273.97;5006574;28;20045;-67
2024/02/28 00:08:44;;;;;;;14.52;6.60;;;;;;;-145.63;100.00;61273.97;5014922;28;20044;-67
2024/02/28 00:11:09;;;;;;;12.20;6.72;;;;;;;-145.63;100.00;61273.97;4996068;28;20046;-67
2024/02/28 00:13:35;;;;;;;11.52;6.75;;;;;;;-145.63;100.00;61273.97;5012340;28;20066;-66
2024/02/28 00:16:01;;;;;;;11.85;6.78;;;;;;;-145.63;100.00;61273.97;5004812;28;20035;-66
2024/02/28 00:18:26;;;;;;;11.90;6.38;;;;;;;-145.63;100.00;61273.97;5008914;28;20029;-66
2024/02/28 00:20:54;;;;;;;10.77;6.00;;;;;;;-145.63;100.00;61273.97;5014057;28;20025;-66
2024/02/28 00:23:19;;;;;;;9.70;6.25;;;;;;;-145.63;100.00;61273.97;5015756;28;20050;-67
2024/02/28 00:25:46;;;;;;;11.55;6.88;;;;;;;-145.63;100.00;61273.97;5003565;28;20241;-65
2024/02/28 00:28:12;;;;;;;9.65;6.40;;;;;;;-145.63;100.00;61273.97;5015660;28;20026;-66
2024/02/28 00:30:37;;;;;;;9.52;6.18;;;;;;;-145.63;100.00;61273.97;5007172;28;20065;-67
2024/02/28 00:33:03;;;;;;;12.00;6.78;;;;;;;-145.63;100.00;61273.97;5006432;28;20069;-66
2024/02/28 00:35:33;;;;;;;11.52;6.40;;;;;;;-145.63;100.00;61273.97;4996649;28;20081;-67
2024/02/28 00:37:59;;;;;;;10.43;5.82;;;;;;;-145.63;100.00;61273.97;5015375;28;20040;-66
2024/02/28 00:40:25;;;;;;;11.07;6.50;;;;;;;-145.63;100.00;61273.97;5003766;28;20465;-65
2024/02/28 00:42:51;;;;;;;11.85;6.45;;;;;;;-145.63;100.00;61273.97;5014958;28;20037;-67
2024/02/28 00:45:17;;;;;;;10.20;6.25;;;;;;;-145.63;100.00;61273.97;5016017;28;20034;-67
2024/02/28 00:47:43;;;;;;;13.57;7.07;;;;;;;-145.63;100.00;61273.97;5015205;28;20108;-66
2024/02/28 00:50:11;;;;;;;11.90;6.45;;;;;;;-145.63;100.00;61273.97;4996221;28;20030;-66
2024/02/28 00:52:37;;;;;;;9.07;6.38;;;;;;;-145.63;100.00;61273.97;5011997;28;20034;-66
2024/02/28 00:55:04;;;;;;;13.18;6.43;;;;;;;-145.63;100.00;61273.97;5003896;28;20042;-66
2024/02/28 00:57:31;;;;;;;11.32;6.45;;;;;;;-145.63;100.00;61273.97;5003123;28;20485;-67
2024/02/28 00:59:56;;;;;;;11.48;6.63;;;;;;;-145.63;100.00;61273.97;5015632;28;20052;-66
2024/02/28 01:02:22;;;;;;;10.30;6.32;;;;;;;-145.63;100.00;61273.97;5015233;28;20379;-65
2024/02/28 01:04:48;;;;;;;13.20;6.40;;;;;;;-145.63;100.00;61273.97;5014419;28;20060;-65
2024/02/28 01:07:14;;;;;;;11.40;6.60;;;;;;;-145.63;100.00;61273.97;5002567;28;20026;-66
2024/02/28 01:09:39;;;;;;;13.27;6.88;;;;;;;-145.63;100.00;61273.97;5003313;28;20037;-65
2024/02/28 01:12:05;;;;;;;12.02;6.93;;;;;;;-145.63;100.00;61273.97;5015104;28;20068;-66
2024/02/28 01:14:31;;;;;;;10.88;6.57;;;;;;;-145.63;100.00;61273.97;5014999;28;20037;-67
2024/02/28 01:16:56;;;;;;;14.40;6.28;;;;;;;-145.63;100.00;61273.97;5012801;28;20029;-66
2024/02/28 01:19:22;;;;;;;12.65;6.75;;;;;;;-145.63;100.00;61273.97;5015543;28;20026;-67
2024/02/28 01:21:48;;;;;;;10.40;6.20;;;;;;;-145.63;100.00;61273.97;5014764;28;20030;-66
2024/02/28 01:24:13;;;;;;;13.63;6.63;;;;;;;-145.63;100.00;61273.97;5015141;28;20041;-67
2024/02/28 01:26:40;;;;;;;14.27;6.70;;;;;;;-145.63;100.00;61273.97;5015018;28;20056;-67
2024/02/28 01:29:06;;;;;;;11.07;6.43;;;;;;;-145.63;100.00;61273.97;4994998;28;20133;-67
2024/02/28 01:31:31;;;;;;;10.50;6.25;;;;;;;-145.63;100.00;61273.97;5009974;28;20095;-67
2024/02/28 01:33:57;;;;;;;10.32;7.10;;;;;;;-145.63;100.00;61273.97;5015123;28;20050;-67
2024/02/28 01:36:23;;;;;;;11.38;6.03;;;;;;;-145.63;100.00;61273.97;5009250;28;20071;-67
2024/02/28 01:38:48;;;;;;;11.77;6.20;;;;;;;-145.63;100.00;61273.97;4996525;28;20030;-65
2024/02/28 01:41:14;;;;;;;10.85;5.82;;;;;;;-145.63;100.00;61273.97;5034256;28;20026;-66
2024/02/28 01:43:40;;;;;;;12.32;7.20;;;;;;;-145.63;100.00;61273.97;5017734;28;20071;-66
2024/02/28 01:46:22;;;;;;;11.30;6.20;;;;;;;-145.63;100.00;61273.97;5013841;28;20064;-67
2024/02/28 01:48:48;;;;;;;13.40;6.45;;;;;;;-145.63;100.00;61273.97;5005616;28;20089;-66
2024/02/28 01:51:13;;;;;;;11.43;6.35;;;;;;;-145.63;100.00;61273.97;5008395;28;20034;-66
2024/02/28 01:53:39;;;;;;;9.95;5.75;;;;;;;-145.63;100.00;61273.97;5034328;28;20543;-66
2024/02/28 01:56:06;;;;;;;11.13;6.28;;;;;;;-145.63;100.00;61273.97;5014746;28;20030;-67
2024/02/28 01:58:32;;;;;;;10.65;6.90;;;;;;;-145.63;100.00;61273.97;5014531;28;20026;-67
2024/02/28 02:01:00;;;;;;;10.02;6.22;;;;;;;-145.63;100.00;61273.97;5025288;28;20171;-66
2024/02/28 02:03:25;;;;;;;13.38;7.18;;;;;;;-145.63;100.00;61273.97;5031350;28;20053;-66
2024/02/28 02:05:51;;;;;;;13.38;7.63;;;;;;;-145.63;100.00;61273.97;5018363;28;20038;-66
2024/02/28 02:08:17;;;;;;;13.38;6.93;;;;;;;-145.63;100.00;61273.97;5016609;28;20084;-65
2024/02/28 02:10:42;;;;;;;12.15;6.90;;;;;;;-145.63;100.00;61273.97;5013550;28;20022;-66
2024/02/28 02:13:08;;;;;;;12.13;6.65;;;;;;;-145.63;100.00;61273.97;5014262;28;20036;-66
2024/02/28 02:15:34;;;;;;;14.48;7.32;;;;;;;-145.63;100.00;61273.97;5007447;28;20034;-65
2024/02/28 02:18:00;;;;;;;10.40;6.32;;;;;;;-145.63;100.00;61273.97;5003392;28;20420;-67
2024/02/28 02:20:29;;;;;;;14.18;7.63;;;;;;;-145.63;100.00;61273.97;5014064;28;20080;-66
2024/02/28 02:22:56;;;;;;;12.45;7.57;;;;;;;-145.63;100.00;61273.97;5013801;28;20040;-66
2024/02/28 02:25:22;;;;;;;14.98;7.22;;;;;;;-145.63;100.00;61273.97;5002885;28;20026;-65
2024/02/28 02:27:47;;;;;;;11.18;7.15;;;;;;;-145.63;100.00;61273.97;5014302;28;20056;-65
2024/02/28 02:30:13;;;;;;;12.25;6.80;;;;;;;-145.63;100.00;61273.97;4999405;28;20038;-67
2024/02/28 02:32:39;;;;;;;12.25;6.45;;;;;;;-145.63;100.00;61273.97;5013689;28;20050;-67
2024/02/28 02:35:05;;;;;;;12.70;6.75;;;;;;;-145.63;100.00;61273.97;4995109;28;20122;-69
2024/02/28 02:37:31;;;;;;;11.85;6.28;;;;;;;-145.63;100.00;61273.97;5009171;28;20394;-69
2024/02/28 02:39:56;;;;;;;13.07;7.28;;;;;;;-145.63;100.00;61273.97;5013675;28;20455;-67
2024/02/28 02:42:22;;;;;;;7.95;5.95;;;;;;;-145.63;100.00;61273.97;5012992;28;20022;-68
2024/02/28 02:44:48;;;;;;;13.70;6.60;;;;;;;-145.63;100.00;61273.97;5013526;28;20061;-67
2024/02/28 02:47:13;;;;;;;11.10;6.50;;;;;;;-145.63;100.00;61273.97;4994053;28;20468;-70
2024/02/28 02:49:39;;;;;;;12.30;6.15;;;;;;;-145.63;100.00;61273.97;5009073;28;20026;-69
2024/02/28 02:52:05;;;;;;;12.23;7.18;;;;;;;-145.63;100.00;61273.97;5014072;28;20468;-66
2024/02/28 02:54:30;;;;;;;16.20;6.70;;;;;;;-145.63;100.00;61273.97;5019663;28;20032;-68
2024/02/28 02:56:56;;;;;;;13.02;7.18;;;;;;;-145.63;100.00;61273.97;5018051;28;20059;-67
2024/02/28 02:59:22;;;;;;;12.93;6.95;;;;;;;-145.63;100.00;61273.97;5013610;28;20026;-66
2024/02/28 03:01:49;;;;;;;14.90;6.97;;;;;;;-145.63;100.00;61273.97;5013312;28;20026;-66
2024/02/28 03:04:15;;;;;;;13.18;6.75;;;;;;;-145.63;100.00;61273.97;5001271;28;20034;-66
2024/02/28 03:06:41;;;;;;;12.65;7.00;;;;;;;-145.63;100.00;61273.97;5000843;28;20052;-66
2024/02/28 03:09:07;;;;;;;13.88;6.80;;;;;;;-145.63;100.00;61273.97;5011164;28;20471;-66
2024/02/28 03:11:35;;;;;;;14.27;7.45;;;;;;;-145.63;100.00;61273.97;5005898;28;20092;-66
2024/02/28 03:14:01;;;;;;;12.75;6.75;;;;;;;-145.63;100.00;61273.97;5013422;28;20032;-66
2024/02/28 03:16:26;;;;;;;10.48;6.88;;;;;;;-145.63;100.00;61273.97;5000113;28;20503;-66
2024/02/28 03:18:53;;;;;;;13.00;6.82;;;;;;;-145.63;100.00;61273.97;5009623;28;20033;-67
2024/02/28 03:21:20;;;;;;;15.18;7.15;;;;;;;-145.63;100.00;61273.97;5013240;28;20030;-67
2024/02/28 03:23:46;;;;;;;11.30;6.63;;;;;;;-145.63;100.00;61273.97;5013369;28;20062;-66
2024/02/28 03:26:11;;;;;;;11.60;6.68;;;;;;;-145.63;100.00;61273.97;5024275;28;20407;-67
2024/02/28 03:28:37;;;;;;;12.50;6.85;;;;;;;-145.63;100.00;61273.97;5013512;28;20042;-66
2024/02/28 03:31:03;;;;;;;10.27;6.18;;;;;;;-145.63;100.00;61273.97;5004974;28;20113;-66
2024/02/28 03:33:31;;;;;;;14.15;6.97;;;;;;;-145.63;100.00;61273.97;5010017;28;20112;-66
2024/02/28 03:35:57;;;;;;;12.20;7.22;;;;;;;-145.63;100.00;61273.97;5021047;28;20048;-65
2024/02/28 03:38:22;;;;;;;10.15;6.03;;;;;;;-145.63;100.00;61273.97;5003108;28;20034;-67
2024/02/28 03:40:48;;;;;;;13.80;7.75;;;;;;;-145.63;100.00;61273.97;4999163;28;20432;-66
2024/02/28 03:43:14;;;;;;;14.75;8.07;;;;;;;-145.63;100.00;61273.97;5007297;28;20034;-66
2024/02/28 03:45:39;;;;;;;11.90;6.75;;;;;;;-145.63;100.00;61273.97;5014319;28;20041;-67
2024/02/28 03:48:05;;;;;;;13.25;6.88;;;;;;;-145.63;100.00;61273.97;5016795;28;20038;-67
2024/02/28 03:50:31;;;;;;;12.38;7.38;;;;;;;-145.63;100.00;61273.97;5006883;28;20079;-67
2024/02/28 03:52:56;;;;;;;12.95;7.57;;;;;;;-145.63;100.00;61273.97;5008424;28;20121;-67
2024/02/28 03:55:22;;;;;;;12.90;7.45;;;;;;;-145.63;100.00;61273.97;5009541;28;20034;-68
2024/02/28 03:57:48;;;;;;;12.75;7.22;;;;;;;-145.63;100.00;61273.97;5007860;28;20022;-67
2024/02/28 04:00:14;;;;;;;16.10;7.82;;;;;;;-145.63;100.00;61273.97;5015790;28;20041;-68
2024/02/28 04:02:40;;;;;;;12.32;6.90;;;;;;;-145.63;100.00;61273.97;5016338;28;20022;-67
2024/02/28 04:05:06;;;;;;;14.32;7.30;;;;;;;-145.63;100.00;61273.97;5007823;28;20510;-66
2024/02/28 04:07:32;;;;;;;13.68;7.10;;;;;;;-145.63;100.00;61273.97;5002640;28;20086;-68
2024/02/28 04:09:57;;;;;;;14.82;7.72;;;;;;;-145.63;100.00;61273.97;4996849;28;20424;-68
2024/02/28 04:12:23;;;;;;;14.20;7.03;;;;;;;-145.63;100.00;61273.97;5000880;28;20104;-68
2024/02/28 04:14:48;;;;;;;13.50;7.25;;;;;;;-145.63;100.00;61273.97;5002441;28;20026;-67
2024/02/28 04:17:14;;;;;;;12.32;6.88;;;;;;;-145.63;100.00;61273.97;5016569;28;20061;-67
2024/02/28 04:19:40;;;;;;;13.30;6.68;;;;;;;-145.63;100.00;61273.97;5010628;28;20034;-67
2024/02/28 04:22:05;;;;;;;11.65;6.80;;;;;;;-145.63;100.00;61273.97;5005707;28;20242;-68
2024/02/28 04:24:32;;;;;;;13.35;7.10;;;;;;;-145.63;100.00;61273.97;5021297;28;20061;-68
2024/02/28 04:26:59;;;;;;;10.70;7.07;;;;;;;-145.63;100.00;61273.97;5020442;28;20509;-67
2024/02/28 04:29:25;;;;;;;12.55;6.70;;;;;;;-145.63;100.00;61273.97;5016076;28;20026;-68
2024/02/28 04:31:51;;;;;;;13.70;7.40;;;;;;;-145.63;100.00;61273.97;4999236;28;20038;-68
2024/02/28 04:34:16;;;;;;;13.95;7.72;;;;;;;-145.63;100.00;61273.97;5039022;28;20034;-67
2024/02/28 04:36:42;;;;;;;12.00;7.03;;;;;;;-145.63;100.00;61273.97;5022511;28;20053;-68
2024/02/28 04:39:08;;;;;;;13.40;7.72;;;;;;;-145.63;100.00;61273.97;5033248;28;20394;-68
2024/02/28 04:41:34;;;;;;;15.48;7.47;;;;;;;-145.63;100.00;61273.97;5010679;28;20030;-69
2024/02/28 04:44:00;;;;;;;14.18;7.50;;;;;;;-145.63;100.00;61273.97;5012586;28;20260;-68
2024/02/28 04:46:25;;;;;;;13.10;7.35;;;;;;;-145.63;100.00;61273.97;5008326;28;20038;-70
2024/02/28 04:48:51;;;;;;;15.32;8.30;;;;;;;-145.63;100.00;61273.97;5008062;28;20038;-69
2024/02/28 04:51:20;;;;;;;10.95;8.10;;;;;;;-145.63;100.00;61273.97;5011570;28;20550;-67
2024/02/28 04:53:45;;;;;;;14.93;7.88;;;;;;;-145.63;100.00;61273.97;5011720;28;20534;-67
2024/02/28 04:56:11;;;;;;;13.57;7.20;;;;;;;-145.63;100.00;61273.97;5014508;28;20030;-69
2024/02/28 04:58:37;;;;;;;11.50;7.28;;;;;;;-145.63;100.00;61273.97;5015263;28;20061;-70
2024/02/28 05:01:03;;;;;;;12.60;7.07;;;;;;;-145.63;100.00;61273.97;5011918;28;20491;-68
2024/02/28 05:03:29;;;;;;;12.95;7.65;;;;;;;-145.63;100.00;61273.97;5000506;28;20030;-68
2024/02/28 05:05:55;;;;;;;11.65;6.85;;;;;;;-145.63;100.00;61273.97;5013198;28;20181;-68
2024/02/28 05:08:21;;;;;;;20.13;7.78;;;;;;;-145.63;100.00;61273.97;4995389;28;20388;-68
2024/02/28 05:10:47;;;;;;;12.70;7.35;;;;;;;-145.63;100.00;61273.97;5009670;28;20061;-69
2024/02/28 05:13:12;;;;;;;12.07;6.55;;;;;;;-145.63;100.00;61273.97;5014473;28;20436;-68
2024/02/28 05:15:38;;;;;;;14.25;7.18;;;;;;;-145.63;100.00;61273.97;5014144;28;20109;-67
2024/02/28 05:18:04;;;;;;;13.65;6.65;;;;;;;-145.63;100.00;61273.97;5014493;28;20026;-70
2024/02/28 05:20:30;;;;;;;14.15;7.22;;;;;;;-145.63;100.00;61273.97;5014813;28;20026;-68
2024/02/28 05:22:56;;;;;;;12.35;7.35;;;;;;;-145.63;100.00;61273.97;5005169;28;20068;-69
2024/02/28 05:25:22;;;;;;;12.45;6.65;;;;;;;-145.63;100.00;61273.97;5014564;28;20034;-68
2024/02/28 05:27:48;;;;;;;12.63;7.40;;;;;;;-145.63;100.00;61273.97;5007667;28;20034;-70
2024/02/28 05:30:14;;;;;;;12.90;6.95;;;;;;;-145.63;100.00;61273.97;5012148;28;20080;-69
2024/02/28 05:32:39;;;;;;;11.18;6.80;;;;;;;-145.63;100.00;61273.97;5015269;28;20110;-69
2024/02/28 05:35:05;;;;;;;13.73;6.88;;;;;;;-145.63;100.00;61273.97;5014915;28;20088;-69
2024/02/28 05:37:31;;;;;;;12.27;7.03;;;;;;;-145.63;100.00;61273.97;5002208;28;20040;-69
2024/02/28 05:39:57;;;;;;;13.00;6.40;;;;;;;-145.63;100.00;61273.97;5010890;28;20033;-70
2024/02/28 05:42:23;;;;;;;13.82;7.47;;;;;;;-145.63;100.00;61273.97;5024114;28;20530;-70
2024/02/28 05:44:49;;;;;;;12.57;6.55;;;;;;;-145.63;100.00;61273.97;5014306;28;20030;-71
2024/02/28 05:47:15;;;;;;;13.88;7.13;;;;;;;-145.63;100.00;61273.97;5014700;28;20137;-71
2024/02/28 05:49:40;;;;;;;13.00;6.53;;;;;;;-145.63;100.00;61273.97;5012502;28;20503;-68
2024/02/28 05:52:06;;;;;;;13.77;6.82;;;;;;;-145.63;100.00;61273.97;5013042;28;20034;-70
2024/02/28 05:54:34;;;;;;;11.95;7.43;;;;;;;-145.63;100.00;61273.97;5009922;28;20030;-73
2024/02/28 05:57:00;;;;;;;11.93;7.00;;;;;;;-145.63;100.00;61273.97;4994674;28;20030;-71
2024/02/28 05:59:26;;;;;;;11.52;6.65;;;;;;;-145.63;100.00;61273.97;4994860;28;20041;-70
2024/02/28 06:01:52;;;;;;;12.70;6.65;;;;;;;-145.63;100.00;61273.97;4994439;28;20018;-71
2024/02/28 06:04:18;;;;;;;11.30;7.13;;;;;;;-145.63;100.00;61273.97;5005485;28;20030;-72
2024/02/28 06:06:43;;;;;;;10.80;6.70;;;;;;;-145.63;100.00;61273.97;5014332;28;20034;-71
2024/02/28 06:09:10;;;;;;;11.10;6.90;;;;;;;-145.63;100.00;61273.97;5012505;28;20072;-70
2024/02/28 06:11:36;;;;;;;10.45;6.28;;;;;;;-145.63;100.00;61273.97;4995490;28;20066;-71
2024/02/28 06:14:03;;;;;;;13.57;6.47;;;;;;;-145.63;100.00;61273.97;5010357;28;20026;-70
2024/02/28 06:16:30;;;;;;;17.27;6.82;;;;;;;-145.63;100.00;61273.97;5011920;28;20072;-71
2024/02/28 06:18:55;;;;;;;11.68;6.72;;;;;;;-145.63;100.00;61273.97;5005284;28;20106;-70
2024/02/28 06:21:25;;;;;;;12.63;6.93;;;;;;;-145.63;100.00;61273.97;4997399;28;20046;-70
2024/02/28 06:23:51;;;;;;;14.73;6.57;;;;;;;-145.63;100.00;61273.97;5013752;28;20403;-69
2024/02/28 06:26:17;;;;;;;9.25;6.57;;;;;;;-145.63;100.00;61273.97;5007018;28;20033;-69
2024/02/28 06:28:45;;;;;;;16.25;7.32;;;;;;;-145.63;100.00;61273.97;5013957;28;20034;-70
2024/02/28 06:31:18;;;;;;;14.48;7.45;;;;;;;-145.63;100.00;61273.97;5013752;28;20069;-66
2024/02/28 06:33:44;;;;;;;10.95;6.65;;;;;;;-145.63;100.00;61273.97;5009544;28;20435;-68
2024/02/28 06:36:10;;;;;;;10.55;6.60;;;;;;;-145.63;100.00;61273.97;5014537;28;20066;-69
2024/02/28 06:38:36;;;;;;;11.82;6.63;;;;;;;-145.63;100.00;61273.97;5033071;28;20064;-68
2024/02/28 06:41:08;;;;;;;14.77;6.15;;;;;;;-145.63;100.00;61273.97;5010378;28;20045;-69
2024/02/28 06:43:35;;;;;;;14.65;6.75;;;;;;;-145.63;100.00;61273.97;5012089;28;20112;-66
2024/02/28 06:46:01;;;;;;;14.05;7.70;;;;;;;-145.63;100.00;61273.97;5011329;28;20030;-66
2024/02/28 06:48:28;;;;;;;11.88;7.40;;;;;;;-145.63;100.00;61273.97;5005652;28;20076;-66
2024/02/28 06:50:54;;;;;;;14.10;7.22;;;;;;;-145.63;100.00;61273.97;5012339;28;20038;-69
2024/02/28 06:53:20;;;;;;;11.20;6.55;;;;;;;-145.63;100.00;61273.97;5012805;28;20037;-69
2024/02/28 06:55:48;;;;;;;13.48;7.38;;;;;;;-145.63;100.00;61273.97;5011214;28;20061;-67
2024/02/28 06:58:14;;;;;;;10.57;6.63;;;;;;;-145.63;100.00;61273.97;5011738;28;20045;-68
2024/02/28 07:00:40;;;;;;;13.20;6.10;;;;;;;-145.63;100.00;61273.97;5008211;28;20043;-69
2024/02/28 07:03:06;;;;;;;10.70;7.25;;;;;;;-145.63;100.00;61273.97;5010572;28;20026;-68
2024/02/28 07:05:33;;;;;;;11.48;6.65;;;;;;;-145.63;100.00;61273.97;5013443;28;20071;-67
2024/02/28 07:08:00;;;;;;;12.32;7.07;;;;;;;-145.63;100.00;61273.97;5012799;28;20091;-67
2024/02/28 07:10:26;;;;;;;13.60;7.55;;;;;;;-145.63;100.00;61273.97;5013266;28;20033;-67
2024/02/28 07:12:51;;;;;;;14.68;6.82;;;;;;;-145.63;100.00;61273.97;5005473;28;20033;-69
2024/02/28 07:15:21;;;;;;;14.95;7.50;;;;;;;-145.63;100.00;61273.97;5002652;28;20049;-68
2024/02/28 07:17:47;;;;;;;14.70;6.68;;;;;;;-145.63;100.00;61273.97;5007217;28;20049;-68
2024/02/28 07:20:13;;;;;;;15.43;7.03;;;;;;;-145.63;100.00;61273.97;5014178;28;20052;-67
2024/02/28 07:22:39;;;;;;;12.38;6.72;;;;;;;-145.63;100.00;61273.97;5013719;28;20378;-67
2024/02/28 07:25:07;;;;;;;12.43;6.88;;;;;;;-145.63;100.00;61273.97;5014800;28;20471;-67
2024/02/28 07:27:32;;;;;;;12.23;7.22;;;;;;;-145.63;100.00;61273.97;5015926;28;20112;-69
2024/02/28 07:29:58;;;;;;;11.52;7.22;;;;;;;-145.63;100.00;61273.97;5016408;28;20164;-68
2024/02/28 07:32:24;;;;;;;12.30;6.70;;;;;;;-145.63;100.00;61273.97;5016924;28;20472;-68
2024/02/28 07:34:50;;;;;;;11.27;6.97;;;;;;;-145.63;100.00;61273.97;5002993;28;20438;-68
2024/02/28 07:37:16;;;;;;;11.82;7.13;;;;;;;-145.63;100.00;61273.97;5007016;28;20041;-68
2024/02/28 07:39:41;;;;;;;16.13;6.90;;;;;;;-145.63;100.00;61273.97;5016788;28;20026;-68
2024/02/28 07:42:07;;;;;;;10.75;6.57;;;;;;;-145.63;100.00;61273.97;5011517;28;20026;-67
2024/02/28 07:44:33;;;;;;;13.90;7.13;;;;;;;-145.63;100.00;61273.97;5015866;28;20045;-69
2024/02/28 07:46:58;;;;;;;12.43;6.60;;;;;;;-145.63;100.00;61273.97;5015659;28;20113;-67
2024/02/28 07:49:25;;;;;;;11.15;6.53;;;;;;;-145.63;100.00;61273.97;5016710;28;20415;-67
2024/02/28 07:51:51;;;;;;;12.15;6.65;;;;;;;-145.63;100.00;61273.97;5016366;28;20033;-67
2024/02/28 07:54:17;;;;;;;10.18;6.25;;;;;;;-145.63;100.00;61273.97;4998815;28;20518;-68
2024/02/28 07:56:44;;;;;;;13.52;7.07;;;;;;;-145.63;100.00;61273.97;5015840;28;20033;-68
2024/02/28 07:59:09;;;;;;;16.98;6.30;;;;;;;-145.63;100.00;61273.97;5007892;28;20539;-68
2024/02/28 08:01:36;;;;;;;12.27;6.65;;;;;;;-145.63;100.00;61273.97;5015476;28;20117;-68
2024/02/28 08:04:02;;;;;;;12.52;6.88;;;;;;;-145.63;100.00;61273.97;5015941;28;20034;-66
2024/02/28 08:06:27;;;;;;;10.95;5.70;;;;;;;-145.63;100.00;61273.97;5015379;28;20049;-67
2024/02/28 08:08:53;;;;;;;8.65;6.03;;;;;;;-145.63;100.00;61273.97;5016559;28;20046;-68
2024/02/28 08:11:19;;;;;;;9.48;6.15;;;;;;;-145.63;100.00;61273.97;5007778;28;20022;-69
2024/02/28 08:13:44;;;;;;;12.45;6.82;;;;;;;-145.63;100.00;61273.97;5013851;28;20466;-68
2024/02/28 08:16:10;;;;;;;12.65;6.70;;;;;;;-145.63;100.00;61273.97;5011144;28;20088;-70
2024/02/28 08:18:36;;;;;;;10.25;6.22;;;;;;;-145.63;100.00;61273.97;5015688;28;20038;-68
2024/02/28 08:21:02;;;;;;;12.68;7.05;;;;;;;-145.63;100.00;61273.97;5015046;28;20533;-68
2024/02/28 08:23:29;;;;;;;11.65;7.15;;;;;;;-145.63;100.00;61273.97;5017840;28;20048;-68
2024/02/28 08:25:55;;;;;;;11.93;5.95;;;;;;;-145.63;100.00;61273.97;5015406;28;20029;-69
2024/02/28 08:28:21;;;;;;;10.13;6.63;;;;;;;-145.63;100.00;61273.97;5006214;28;20519;-67
2024/02/28 08:30:49;;;;;;;13.18;6.53;;;;;;;-145.63;100.00;61273.97;4995152;28;20125;-65
2024/02/28 08:33:15;;;;;;;13.55;6.88;;;;;;;-145.63;100.00;61273.97;4996646;28;20395;-65
2024/02/28 08:35:40;;;;;;;10.57;5.70;;;;;;;-145.63;100.00;61273.97;5015628;28;20045;-67
2024/02/28 08:38:06;;;;;;;15.45;6.65;;;;;;;-145.63;100.00;61273.97;5012021;28;20038;-68
2024/02/28 08:40:32;;;;;;;12.23;6.32;;;;;;;-145.63;100.00;61273.97;5021115;28;20036;-68
2024/02/28 08:42:57;;;;;;;17.02;7.07;;;;;;;-145.63;100.00;61273.97;5014695;28;20022;-67
2024/02/28 08:45:23;;;;;;;10.00;5.85;;;;;;;-145.63;100.00;61273.97;5014487;28;20037;-65
2024/02/28 08:47:49;;;;;;;15.88;7.00;;;;;;;-145.63;100.00;61273.97;5008426;28;20022;-67
2024/02/28 08:50:14;;;;;;;13.88;6.53;;;;;;;-145.63;100.00;61273.97;5014647;28;20037;-66
2024/02/28 08:52:40;;;;;;;10.90;6.90;;;;;;;-145.63;100.00;61273.97;5012705;28;20030;-67
2024/02/28 08:55:06;;;;;;;13.45;7.18;;;;;;;-145.63;100.00;61273.97;5012218;28;20037;-66
2024/02/28 08:57:32;;;;;;;10.73;6.65;;;;;;;-145.63;100.00;61273.97;5016490;28;20065;-69
2024/02/28 08:59:57;;;;;;;12.00;8.13;;;;;;;-145.63;100.00;61273.97;5015744;28;20090;-68
2024/02/28 09:02:23;;;;;;;10.57;6.68;;;;;;;-145.63;100.00;61273.97;5004805;28;20042;-66
2024/02/28 09:04:51;;;;;;;16.08;7.20;;;;;;;-145.63;100.00;61273.97;5008509;28;20038;-67
2024/02/28 09:07:21;;;;;;;11.23;6.57;;;;;;;-145.63;100.00;61273.97;5005168;28;20057;-68
2024/02/28 09:09:47;;;;;;;13.98;6.32;;;;;;;-145.63;100.00;61273.97;5009876;28;20116;-66
2024/02/28 09:12:13;;;;;;;10.55;6.82;;;;;;;-145.63;100.00;61273.97;5002835;28;20180;-67
2024/02/28 09:14:39;;;;;;;20.85;6.68;;;;;;;-145.63;100.00;61273.97;5025942;28;21131;-65
2024/02/28 09:17:05;;;;;;;12.95;6.07;;;;;;;-145.63;100.00;61273.97;5014467;28;20040;-66
2024/02/28 09:19:34;;;;;;;11.75;7.50;;;;;;;-145.63;100.00;61273.97;5014980;28;20336;-67
2024/02/28 09:21:59;;;;;;;11.20;6.72;;;;;;;-145.63;100.00;61273.97;5008233;28;20101;-70
2024/02/28 09:24:26;;;;;;;10.23;6.50;;;;;;;-145.63;100.00;61273.97;5013271;28;20109;-68
2024/02/28 09:26:52;;;;;;;12.93;7.03;;;;;;;-145.63;100.00;61273.97;5007134;28;20036;-68
2024/02/28 09:29:18;;;;;;;12.77;7.07;;;;;;;-145.63;100.00;61273.97;5010165;28;20037;-69
2024/02/28 09:31:44;;;;;;;18.10;7.22;;;;;;;-145.63;100.00;61273.97;5013908;28;20041;-67
2024/02/28 09:34:09;;;;;;;12.63;7.32;;;;;;;-145.63;100.00;61273.97;5006585;28;20042;-67
2024/02/28 09:36:45;;;;;;;13.52;7.55;;;;;;;-145.63;100.00;61273.97;5002029;28;20048;-67
2024/02/28 09:39:15;;;;;;;12.73;7.38;;;;;;;-145.63;100.00;61273.97;5000059;28;20034;-64
2024/02/28 09:41:41;;;;;;;10.88;6.85;;;;;;;-145.63;100.00;61273.97;4994701;28;20431;-66
2024/02/28 09:44:07;;;;;;;11.80;7.05;;;;;;;-145.63;100.00;61273.97;5011097;28;20056;-67
2024/02/28 09:46:37;;;;;;;14.40;6.72;;;;;;;-145.63;100.00;61273.97;5014206;28;20030;-66
2024/02/28 09:49:04;;;;;;;12.77;7.13;;;;;;;-145.63;100.00;61273.97;5008534;28;20096;-67
2024/02/28 09:51:35;;;;;;;12.05;7.15;;;;;;;-145.63;100.00;61273.97;5014212;28;20099;-66
2024/02/28 09:54:04;;;;;;;16.33;8.27;;;;;;;-145.63;100.00;61273.97;5002791;28;20088;-68
2024/02/28 09:56:34;;;;;;;12.45;7.65;;;;;;;-145.63;100.00;61273.97;5013382;28;20037;-68
2024/02/28 09:59:02;;;;;;;13.52;8.18;;;;;;;-145.63;100.00;61273.97;5014013;28;20112;-68
2024/02/28 10:01:29;;;;;;;14.27;7.47;;;;;;;-145.63;100.00;61273.97;5007844;28;20037;-68
2024/02/28 10:03:56;;;;;;;15.18;7.80;;;;;;;-145.63;100.00;61273.97;4996684;28;20034;-71
2024/02/28 10:06:22;;;;;;;14.10;8.00;;;;;;;-145.63;100.00;61273.97;5006733;28;20371;-67
2024/02/28 10:08:48;;;;;;;14.65;8.02;;;;;;;-145.63;100.00;61273.97;5005136;28;20402;-67
2024/02/28 10:11:21;;;;;;;11.77;7.53;;;;;;;-145.63;100.00;61273.97;5030205;28;20032;-69
2024/02/28 10:13:52;;;;;;;13.38;7.97;;;;;;;-145.63;100.00;61273.97;5021358;28;20117;-70
2024/02/28 10:16:18;;;;;;;14.07;7.33;;;;;;;-145.63;100.00;61273.97;4987913;28;20034;-67
2024/02/28 10:18:44;;;;;;;14.25;7.57;;;;;;;-145.63;100.00;61273.97;5008658;28;20427;-65
2024/02/28 10:21:17;;;;;;;12.07;6.97;;;;;;;-145.63;100.00;61273.97;5013549;28;20037;-67
2024/02/28 10:23:44;;;;;;;14.15;8.02;;;;;;;-145.63;100.00;61273.97;4994234;28;20105;-69
2024/02/28 10:26:11;;;;;;;16.45;8.13;;;;;;;-145.63;100.00;61273.97;4993832;28;20483;-69
2024/02/28 10:28:39;;;;;;;12.48;7.07;;;;;;;-145.63;100.00;61273.97;4992315;28;20076;-66
2024/02/28 10:31:06;;;;;;;16.20;8.18;;;;;;;-145.63;100.00;61273.97;4993605;28;20064;-67
2024/02/28 10:33:33;;;;;;;14.25;7.53;;;;;;;-145.63;100.00;61273.97;5013695;28;20049;-66
2024/02/28 10:35:59;;;;;;;15.40;8.20;;;;;;;-145.63;100.00;61273.97;5012170;28;20471;-67
2024/02/28 10:38:27;;;;;;;14.43;7.85;;;;;;;-145.63;100.00;61273.97;5001812;28;20106;-63
2024/02/28 10:40:56;;;;;;;12.88;7.45;;;;;;;-145.63;100.00;61273.97;5009017;28;20044;-64
2024/02/28 10:43:23;;;;;;;13.40;7.70;;;;;;;-145.63;100.00;61273.97;5008946;28;20498;-67
2024/02/28 10:45:50;;;;;;;12.80;8.43;;;;;;;-145.63;100.00;61273.97;5004799;28;20030;-67
2024/02/28 10:48:16;;;;;;;16.45;7.85;;;;;;;-145.63;100.00;61273.97;5013458;28;20044;-66
2024/02/28 10:50:44;;;;;;;15.50;8.25;;;;;;;-145.63;100.00;61273.97;5010614;28;20030;-67
2024/02/28 10:53:14;;;;;;;14.90;8.52;;;;;;;-145.63;100.00;61273.97;5012924;28;20363;-67
2024/02/28 10:55:41;;;;;;;15.90;8.25;;;;;;;-145.63;100.00;61273.97;5019120;28;20033;-66
2024/02/28 10:58:11;;;;;;;13.73;8.30;;;;;;;-145.63;100.00;61273.97;5019653;28;20491;-69